Aiken, Texas
Current Conditions -  °F | °C
As of 10:55 AM on Saturday 20 Dec 2014 (Local Time) from KPVW Reporting Station
Overcast Overcast  
Wind Chill:   Ceiling: 600
Heat Index:   Visibility: 7mi
Dew Point:   Wind: 10mph
Humidity: 89%   Direction: 220°SW
Pressure: 30.13"   Gusts: 16mph
Location:  34.14°N, 101.53°W
Report Text: KPVW 201655Z AUTO 22009G14KT 7SM OVC006 04/03 A3013 RMK AO2 T00430026
Loading
Personal Weather Stations






























Interactive Weather Map New forecast layout! Learn more

10-Day Weather Forecast

Advertisements
Track Severe Weather on mobile